Time;durP1;ratioP1;P1;durP2;ratioP2;P2;SDS_P1;SDS_P2;PMS_P1;PMS_P2;Temp;Humidity;BMP_temperature;BMP_pressure;BME280_temperature;BME280_humidity;BME280_pressure;Samples;Min_cycle;Max_cycle;Signal;HPM_P1;HPM_P2
2019/09/27 00:00:19;;;;;;;2.6;1.3;;;;;;;;;;;;;
2019/09/27 00:02:32;;;;;;;4.4;1.2;;;;;;;;;;;;;
2019/09/27 00:05:01;;;;;;;6.7;1.2;;;;;;;;;;;;;
2019/09/27 00:07:23;;;;;;;3;1.2;;;;;;;;;;;;;
2019/09/27 00:09:47;;;;;;;5.5;1.4;;;;;;;;;;;;;
2019/09/27 00:12:11;;;;;;;2.4;1.3;;;;;;;;;;;;;
2019/09/27 00:14:37;;;;;;;2.3;1.1;;;;;;;;;;;;;
2019/09/27 00:17:04;;;;;;;3.4;1;;;;;;;;;;;;;
2019/09/27 00:19:27;;;;;;;3.3;1.1;;;;;;;;;;;;;
2019/09/27 00:21:53;;;;;;;3.5;1;;;;;;;;;;;;;
2019/09/27 00:24:26;;;;;;;2.9;1;;;;;;;;;;;;;
2019/09/27 00:26:43;;;;;;;1.4;1;;;;;;;;;;;;;
2019/09/27 00:29:09;;;;;;;6.1;1.3;;;;;;;;;;;;;
2019/09/27 00:31:34;;;;;;;3.8;1.5;;;;;;;;;;;;;
2019/09/27 00:34:00;;;;;;;3.4;1.1;;;;;;;;;;;;;
2019/09/27 00:36:24;;;;;;;4.2;1.2;;;;;;;;;;;;;
2019/09/27 00:38:50;;;;;;;2.5;1.2;;;;;;;;;;;;;
2019/09/27 00:41:15;;;;;;;2.8;1.2;;;;;;;;;;;;;
2019/09/27 00:43:42;;;;;;;3.7;1.3;;;;;;;;;;;;;
2019/09/27 00:46:05;;;;;;;4.9;1.3;;;;;;;;;;;;;
2019/09/27 00:48:30;;;;;;;3.3;1.2;;;;;;;;;;;;;
2019/09/27 00:50:55;;;;;;;4.2;1.3;;;;;;;;;;;;;
2019/09/27 00:53:24;;;;;;;3.3;1.1;;;;;;;;;;;;;
2019/09/27 00:58:12;;;;;;;4.3;1.3;;;;;;;;;;;;;
2019/09/27 01:00:36;;;;;;;1.5;1.1;;;;;;;;;;;;;
2019/09/27 01:03:03;;;;;;;3.1;1.1;;;;;;;;;;;;;
2019/09/27 01:05:26;;;;;;;3.5;1.1;;;;;;;;;;;;;
2019/09/27 01:07:53;;;;;;;3.1;1.1;;;;;;;;;;;;;
2019/09/27 01:10:19;;;;;;;5.7;1.2;;;;;;;;;;;;;
2019/09/27 01:12:47;;;;;;;3.1;1.1;;;;;;;;;;;;;
2019/09/27 01:15:09;;;;;;;3.9;1;;;;;;;;;;;;;
2019/09/27 01:17:34;;;;;;;1.9;1;;;;;;;;;;;;;
2019/09/27 01:19:59;;;;;;;2;1.2;;;;;;;;;;;;;
2019/09/27 01:22:29;;;;;;;4;1.2;;;;;;;;;;;;;
2019/09/27 01:24:51;;;;;;;3.4;1.2;;;;;;;;;;;;;
2019/09/27 01:27:15;;;;;;;3.6;1.1;;;;;;;;;;;;;
2019/09/27 01:29:40;;;;;;;3.7;1;;;;;;;;;;;;;
2019/09/27 01:32:07;;;;;;;2.2;1.1;;;;;;;;;;;;;
2019/09/27 01:34:30;;;;;;;3.8;0.9;;;;;;;;;;;;;
2019/09/27 01:36:56;;;;;;;3;1;;;;;;;;;;;;;
2019/09/27 01:39:20;;;;;;;3.6;1.6;;;;;;;;;;;;;
2019/09/27 01:41:49;;;;;;;3.2;1.7;;;;;;;;;;;;;
2019/09/27 01:44:13;;;;;;;2.8;1.8;;;;;;;;;;;;;
2019/09/27 01:46:36;;;;;;;2.8;1.7;;;;;;;;;;;;;
2019/09/27 01:49:07;;;;;;;3.7;1.9;;;;;;;;;;;;;
2019/09/27 01:51:28;;;;;;;3.1;1.4;;;;;;;;;;;;;
2019/09/27 01:53:52;;;;;;;5.6;2.1;;;;;;;;;;;;;
2019/09/27 01:56:17;;;;;;;5.2;1.8;;;;;;;;;;;;;
2019/09/27 01:58:42;;;;;;;4.4;1.4;;;;;;;;;;;;;
2019/09/27 02:01:06;;;;;;;4.4;1.4;;;;;;;;;;;;;
2019/09/27 02:03:33;;;;;;;4.1;1.3;;;;;;;;;;;;;
2019/09/27 02:05:59;;;;;;;2.1;1.2;;;;;;;;;;;;;
2019/09/27 02:08:22;;;;;;;2.4;1;;;;;;;;;;;;;
2019/09/27 02:10:47;;;;;;;2.2;1.2;;;;;;;;;;;;;
2019/09/27 02:13:13;;;;;;;2.4;1.1;;;;;;;;;;;;;
2019/09/27 02:15:39;;;;;;;6.1;2.5;;;;;;;;;;;;;
2019/09/27 02:18:04;;;;;;;7;2.5;;;;;;;;;;;;;
2019/09/27 02:20:36;;;;;;;11.1;1.9;;;;;;;;;;;;;
2019/09/27 02:23:05;;;;;;;3.5;1.3;;;;;;;;;;;;;
2019/09/27 02:25:27;;;;;;;3.6;1.1;;;;;;;;;;;;;
2019/09/27 02:27:50;;;;;;;3.9;1.4;;;;;;;;;;;;;
2019/09/27 02:30:18;;;;;;;4.1;1.3;;;;;;;;;;;;;
2019/09/27 02:32:56;;;;;;;2.8;1.2;;;;;;;;;;;;;
2019/09/27 02:35:08;;;;;;;2.3;1;;;;;;;;;;;;;
2019/09/27 02:37:34;;;;;;;2.7;1.1;;;;;;;;;;;;;
2019/09/27 02:40:07;;;;;;;1.6;0.9;;;;;;;;;;;;;
2019/09/27 02:42:37;;;;;;;2.3;1;;;;;;;;;;;;;
2019/09/27 02:45:02;;;;;;;6.9;1;;;;;;;;;;;;;
2019/09/27 02:47:30;;;;;;;4.2;1;;;;;;;;;;;;;
2019/09/27 02:49:54;;;;;;;2.4;0.9;;;;;;;;;;;;;
2019/09/27 02:52:22;;;;;;;1.6;1;;;;;;;;;;;;;
2019/09/27 02:54:46;;;;;;;2.5;0.9;;;;;;;;;;;;;
2019/09/27 02:57:13;;;;;;;1.8;1;;;;;;;;;;;;;
2019/09/27 02:59:37;;;;;;;2.2;1.2;;;;;;;;;;;;;
2019/09/27 03:02:01;;;;;;;2.8;1.4;;;;;;;;;;;;;
2019/09/27 03:04:26;;;;;;;1.5;1.1;;;;;;;;;;;;;
2019/09/27 03:06:53;;;;;;;2.3;1.1;;;;;;;;;;;;;
2019/09/27 03:09:18;;;;;;;4.1;1.1;;;;;;;;;;;;;
2019/09/27 03:11:41;;;;;;;3.4;1.1;;;;;;;;;;;;;
2019/09/27 03:14:06;;;;;;;1.9;1;;;;;;;;;;;;;
2019/09/27 03:16:44;;;;;;;2.9;1.2;;;;;;;;;;;;;
2019/09/27 03:18:58;;;;;;;4.9;1;;;;;;;;;;;;;
2019/09/27 03:21:23;;;;;;;5.9;1;;;;;;;;;;;;;
2019/09/27 03:23:46;;;;;;;3.1;0.9;;;;;;;;;;;;;
2019/09/27 03:26:17;;;;;;;3.3;0.9;;;;;;;;;;;;;
2019/09/27 03:28:38;;;;;;;2.8;1.1;;;;;;;;;;;;;
2019/09/27 03:31:04;;;;;;;2.6;1.2;;;;;;;;;;;;;
2019/09/27 03:33:28;;;;;;;1.5;1.1;;;;;;;;;;;;;
2019/09/27 03:35:58;;;;;;;2.5;1;;;;;;;;;;;;;
2019/09/27 03:38:19;;;;;;;4.4;1.1;;;;;;;;;;;;;
2019/09/27 03:40:44;;;;;;;5.4;1.3;;;;;;;;;;;;;
2019/09/27 03:43:09;;;;;;;3.3;1.2;;;;;;;;;;;;;
2019/09/27 03:45:35;;;;;;;3.4;1.3;;;;;;;;;;;;;
2019/09/27 03:47:59;;;;;;;3.2;1.3;;;;;;;;;;;;;
2019/09/27 03:50:28;;;;;;;4.6;1.3;;;;;;;;;;;;;
2019/09/27 03:52:49;;;;;;;3.4;1.4;;;;;;;;;;;;;
2019/09/27 03:55:14;;;;;;;3.5;1.2;;;;;;;;;;;;;
2019/09/27 03:57:40;;;;;;;2.7;1.1;;;;;;;;;;;;;
2019/09/27 04:00:07;;;;;;;3.9;1.4;;;;;;;;;;;;;
2019/09/27 04:02:41;;;;;;;3.9;1.5;;;;;;;11.43;91.78125;938.9119;;;;
2019/09/27 04:05:09;;;;;;;5.9;1.6;;;;;;;11.27;92.50293;938.9009;;;;
2019/09/27 04:07:43;;;;;;;6.1;3.7;;;;;;;11.27;92.92676;938.9056;;;;
2019/09/27 04:10:14;;;;;;;5.1;3.4;;;;;;;11.44;91.93359;938.8499;;;;
2019/09/27 04:12:39;;;;;;;5.7;3.3;;;;;;;11.5;91.49902;938.8837;;;;
2019/09/27 04:15:03;;;;;;;5.7;3.8;;;;;;;11.47;91.74512;938.8644;;;;
2019/09/27 04:17:35;;;;;;;9.5;6.6;;;;;;;11.47;91.50488;938.7942;;;;
2019/09/27 04:20:14;;;;;;;7;5.6;;;;;;;11.25;92.38281;938.8656;;;;
2019/09/27 04:22:38;;;;;;;6.7;3.5;;;;;;;11.12;93.17969;938.8915;;;;
2019/09/27 04:25:13;;;;;;;6.6;3.5;;;;;;;11.32;92.23828;938.8183;;;;
2019/09/27 04:27:38;;;;;;;11.1;4.5;;;;;;;11.25;92.06348;938.8808;;;;
2019/09/27 04:30:06;;;;;;;7.4;5.8;;;;;;;11.13;92.91992;938.8621;;;;
2019/09/27 04:32:30;;;;;;;8.8;6.3;;;;;;;11.17;92.78906;938.8225;;;;
2019/09/27 04:35:01;;;;;;;6.5;3.9;;;;;;;11.19;92.50879;938.7255;;;;
2019/09/27 04:38:19;;;;;;;4.9;2.1;;;;;;;11.08;92.9541;938.6425;;;;
2019/09/27 04:40:54;;;;;;;5;2.1;;;;;;;10.99;93.67773;938.8326;;;;
2019/09/27 04:43:28;;;;;;;9.5;1.9;;;;;;;11.11;93.12207;938.736;;;;
2019/09/27 04:45:58;;;;;;;7;2.2;;;;;;;11.08;93.29785;938.813;;;;
2019/09/27 04:51:04;;;;;;;3.6;1.8;;;;;;;11.2;92.25879;938.8267;;;;
2019/09/27 04:53:27;;;;;;;5.7;1.9;;;;;;;11.25;92.18848;938.8091;;;;
2019/09/27 04:55:51;;;;;;;7.7;5.2;;;;;;;11.37;91.07031;938.7916;;;;
2019/09/27 04:58:24;;;;;;;8.4;5.4;;;;;;;11.38;90.50195;938.7845;;;;
2019/09/27 05:01:14;;;;;;;8.7;4.5;;;;;;;11.26;90.99023;938.7445;;;;
2019/09/27 05:03:28;;;;;;;4.3;2.3;;;;;;;10.87;92.64551;938.7759;;;;
2019/09/27 05:06:17;;;;;;;5.7;2.4;;;;;;;10.87;92.97656;938.8148;;;;
2019/09/27 05:08:46;;;;;;;5.5;2.4;;;;;;;10.91;93.05469;938.6982;;;;
2019/09/27 05:11:16;;;;;;;2.7;2;;;;;;;11.02;92.73535;938.6859;;;;
2019/09/27 05:13:41;;;;;;;4.5;1.9;;;;;;;11.1;92.28418;938.7264;;;;
2019/09/27 05:16:05;;;;;;;5.1;1.8;;;;;;;11.14;91.9375;938.7083;;;;
2019/09/27 05:18:36;;;;;;;5.6;1.9;;;;;;;11.27;91.3252;938.6291;;;;
2019/09/27 05:21:18;;;;;;;4.2;1.8;;;;;;;11.06;91.68164;938.6735;;;;
2019/09/27 05:23:50;;;;;;;4.8;1.8;;;;;;;10.95;92.03418;938.6794;;;;
2019/09/27 05:26:20;;;;;;;12;2.7;;;;;;;11;92.14844;938.6638;;;;
2019/09/27 05:28:46;;;;;;;6.6;1.7;;;;;;;11;92.86816;938.6495;;;;
2019/09/27 05:31:11;;;;;;;5.2;1.5;;;;;;;11.13;93.12402;938.6572;;;;
2019/09/27 05:33:40;;;;;;;4.8;1.4;;;;;;;11.37;92.35156;938.6225;;;;
2019/09/27 05:36:11;;;;;;;10;1.8;;;;;;;11.54;91.57715;938.6399;;;;
2019/09/27 05:38:39;;;;;;;10.3;3.7;;;;;;;11.58;91.8252;938.6274;;;;
2019/09/27 05:41:10;;;;;;;6.3;1.8;;;;;;;11.49;92.36426;938.5527;;;;
2019/09/27 05:43:35;;;;;;;7.7;3.5;;;;;;;11.58;92.71777;938.5605;;;;
2019/09/27 05:46:05;;;;;;;15;4.3;;;;;;;11.68;92.36133;938.4863;;;;
2019/09/27 05:48:30;;;;;;;10;4;;;;;;;11.89;91.35156;938.4353;;;;
2019/09/27 05:51:00;;;;;;;13.3;4.3;;;;;;;12.15;90.0332;938.4813;;;;
2019/09/27 05:53:30;;;;;;;15.9;9.4;;;;;;;12.1;89.89453;938.4891;;;;
2019/09/27 05:55:56;;;;;;;21.8;9.7;;;;;;;12.25;89.20215;938.4755;;;;
2019/09/27 05:58:28;;;;;;;12.7;8.1;;;;;;;12.38;88.89746;938.4464;;;;
2019/09/27 06:01:00;;;;;;;20.3;9.1;;;;;;;12.53;88.39941;938.4271;;;;
2019/09/27 06:03:26;;;;;;;21;8.6;;;;;;;12.55;88.19824;938.4383;;;;
2019/09/27 06:05:58;;;;;;;16.3;8.2;;;;;;;12.63;87.5498;938.4244;;;;
2019/09/27 06:08:22;;;;;;;12.7;7.8;;;;;;;12.61;87.53418;938.412;;;;
2019/09/27 06:10:50;;;;;;;14.4;6;;;;;;;12.4;88.41016;938.3881;;;;
2019/09/27 06:13:17;;;;;;;14.1;5.5;;;;;;;12.56;88.02832;938.3194;;;;
2019/09/27 06:15:51;;;;;;;7.8;4.3;;;;;;;12.68;87.43262;938.3741;;;;
2019/09/27 06:18:21;;;;;;;8.5;4.2;;;;;;;12.88;87.07031;938.3403;;;;
2019/09/27 06:20:57;;;;;;;10;3.3;;;;;;;13.12;86.75391;938.4125;;;;
2019/09/27 06:23:20;;;;;;;11.9;3.2;;;;;;;13.24;86.15625;938.3691;;;;
2019/09/27 06:25:44;;;;;;;6.3;2.8;;;;;;;13.14;86.89355;938.3462;;;;
2019/09/27 06:28:24;;;;;;;10.8;2.4;;;;;;;13.06;87.39551;938.3446;;;;
2019/09/27 06:31:18;;;;;;;9.1;2.2;;;;;;;13;88.63672;938.4306;;;;
2019/09/27 06:34:01;;;;;;;6.1;2.2;;;;;;;13.35;87.80957;938.3642;;;;
2019/09/27 06:36:24;;;;;;;6.2;1.8;;;;;;;13.61;85.85059;938.3969;;;;
2019/09/27 06:38:45;;;;;;;5.7;2;;;;;;;13.7;86.1543;938.425;;;;
2019/09/27 06:41:11;;;;;;;5.5;1.9;;;;;;;13.88;85.78906;938.3951;;;;
2019/09/27 06:43:40;;;;;;;5.5;1.6;;;;;;;14.16;84.8418;938.34;;;;
2019/09/27 06:46:05;;;;;;;5.9;1.4;;;;;;;;;;;;;
2019/09/27 06:48:33;;;;;;;2.9;1.2;;;;;;;;;;;;;
2019/09/27 06:51:19;;;;;;;3.2;1.3;;;;;;;;;;;;;
2019/09/27 06:53:43;;;;;;;4;1.8;;;;;;;;;;;;;
2019/09/27 06:56:17;;;;;;;4.6;1.7;;;;;;;;;;;;;
2019/09/27 06:58:38;;;;;;;5.2;2.3;;;;;;;;;;;;;
2019/09/27 07:01:07;;;;;;;4.2;2;;;;;;;;;;;;;
2019/09/27 07:03:32;;;;;;;7.8;2.8;;;;;;;;;;;;;
2019/09/27 07:05:56;;;;;;;6.1;2;;;;;;;;;;;;;
2019/09/27 07:08:22;;;;;;;5.8;1.5;;;;;;;;;;;;;
2019/09/27 07:10:52;;;;;;;5.3;2.2;;;;;;;;;;;;;
2019/09/27 07:13:12;;;;;;;7.2;2;;;;;;;;;;;;;
2019/09/27 07:15:38;;;;;;;7.7;2.1;;;;;;;;;;;;;
2019/09/27 07:18:02;;;;;;;5.6;1.5;;;;;;;;;;;;;
2019/09/27 07:20:29;;;;;;;5.2;1.6;;;;;;;;;;;;;
2019/09/27 07:22:54;;;;;;;4.9;1.7;;;;;;;;;;;;;
2019/09/27 07:25:20;;;;;;;6.2;1.5;;;;;;;;;;;;;
2019/09/27 07:27:52;;;;;;;3.5;1.6;;;;;;;;;;;;;
2019/09/27 07:30:12;;;;;;;4.4;1.8;;;;;;;;;;;;;
2019/09/27 07:32:36;;;;;;;4.6;2;;;;;;;;;;;;;
2019/09/27 07:35:17;;;;;;;7.7;2.1;;;;;;;;;;;;;
2019/09/27 07:37:43;;;;;;;5;1.3;;;;;;;;;;;;;
2019/09/27 07:40:07;;;;;;;2;1;;;;;;;;;;;;;
2019/09/27 07:43:50;;;;;;;6.9;1.4;;;;;;;;;;;;;
2019/09/27 07:46:19;;;;;;;2;1.2;;;;;;;;;;;;;
2019/09/27 07:48:44;;;;;;;2.9;1.3;;;;;;;;;;;;;
2019/09/27 07:51:09;;;;;;;3.4;1.3;;;;;;;;;;;;;
2019/09/27 07:53:36;;;;;;;4.6;1.2;;;;;;;;;;;;;
2019/09/27 07:56:03;;;;;;;5.1;1.5;;;;;;;;;;;;;
2019/09/27 07:58:27;;;;;;;6.3;1.6;;;;;;;;;;;;;
2019/09/27 08:00:58;;;;;;;2.9;1.1;;;;;;;;;;;;;
2019/09/27 08:03:17;;;;;;;3.9;1.4;;;;;;;;;;;;;
2019/09/27 08:05:43;;;;;;;4.5;1;;;;;;;;;;;;;
2019/09/27 08:08:09;;;;;;;4.9;1;;;;;;;;;;;;;
2019/09/27 08:10:36;;;;;;;7.6;1;;;;;;;;;;;;;
2019/09/27 08:12:59;;;;;;;9.2;1.3;;;;;;;;;;;;;
2019/09/27 08:17:50;;;;;;;5.6;1.2;;;;;;;;;;;;;
2019/09/27 08:20:19;;;;;;;4;1.2;;;;;;;;;;;;;
2019/09/27 08:22:44;;;;;;;1.7;0.9;;;;;;;;;;;;;
2019/09/27 08:25:14;;;;;;;2.2;1;;;;;;;;;;;;;
2019/09/27 08:27:40;;;;;;;5.6;1.2;;;;;;;;;;;;;
2019/09/27 08:30:15;;;;;;;3.6;1.1;;;;;;;;;;;;;
2019/09/27 08:32:37;;;;;;;3.6;1.3;;;;;;;;;;;;;
2019/09/27 08:35:09;;;;;;;2.9;1.3;;;;;;;;;;;;;
2019/09/27 08:37:31;;;;;;;4.2;1;;;;;;;;;;;;;
2019/09/27 08:39:53;;;;;;;2.8;0.9;;;;;;;;;;;;;
2019/09/27 08:42:22;;;;;;;3.3;0.9;;;;;;;;;;;;;
2019/09/27 08:44:46;;;;;;;2.3;0.9;;;;;;;;;;;;;
2019/09/27 08:47:10;;;;;;;2.4;1.1;;;;;;;;;;;;;
2019/09/27 08:49:36;;;;;;;3.7;1.2;;;;;;;;;;;;;
2019/09/27 08:52:04;;;;;;;3.7;1.1;;;;;;;;;;;;;
2019/09/27 08:54:27;;;;;;;6.1;1.3;;;;;;;;;;;;;
2019/09/27 08:56:53;;;;;;;2.8;1.2;;;;;;;;;;;;;
2019/09/27 08:59:21;;;;;;;2.8;1.2;;;;;;;;;;;;;
2019/09/27 09:01:45;;;;;;;4.1;1.4;;;;;;;;;;;;;
2019/09/27 09:04:11;;;;;;;3.1;1.1;;;;;;;;;;;;;
2019/09/27 09:06:41;;;;;;;7.2;1.2;;;;;;;;;;;;;
2019/09/27 09:09:15;;;;;;;2.9;0.9;;;;;;;;;;;;;
2019/09/27 09:11:32;;;;;;;2.4;0.8;;;;;;;;;;;;;
2019/09/27 09:14:01;;;;;;;5.7;0.9;;;;;;;;;;;;;
2019/09/27 09:16:23;;;;;;;2.8;0.8;;;;;;;;;;;;;
2019/09/27 09:18:50;;;;;;;5.2;1.2;;;;;;;;;;;;;
2019/09/27 09:21:17;;;;;;;3.2;0.9;;;;;;;;;;;;;
2019/09/27 09:23:41;;;;;;;4.5;1.1;;;;;;;;;;;;;
2019/09/27 09:26:05;;;;;;;1.5;1;;;;;;;;;;;;;
2019/09/27 09:28:30;;;;;;;2.3;0.9;;;;;;;;;;;;;
2019/09/27 09:30:58;;;;;;;1.9;0.8;;;;;;;;;;;;;
2019/09/27 09:33:27;;;;;;;2.6;0.9;;;;;;;;;;;;;
2019/09/27 09:35:46;;;;;;;2.8;1;;;;;;;;;;;;;
2019/09/27 09:38:12;;;;;;;2.2;0.9;;;;;;;;;;;;;
2019/09/27 09:40:42;;;;;;;1.1;0.8;;;;;;;;;;;;;
2019/09/27 09:43:02;;;;;;;1.6;1.1;;;;;;;;;;;;;
2019/09/27 09:45:28;;;;;;;2.6;1;;;;;;;;;;;;;
2019/09/27 09:48:22;;;;;;;3.7;0.9;;;;;;;;;;;;;
2019/09/27 09:52:57;;;;;;;3.3;1.1;;;;;;;;;;;;;
2019/09/27 09:55:22;;;;;;;3;1.2;;;;;;;;;;;;;
2019/09/27 09:57:49;;;;;;;2;0.9;;;;;;;;;;;;;
2019/09/27 10:00:14;;;;;;;2;0.9;;;;;;;;;;;;;
2019/09/27 10:02:38;;;;;;;2.4;0.9;;;;;;;;;;;;;
2019/09/27 10:05:04;;;;;;;2.9;0.9;;;;;;;;;;;;;
2019/09/27 10:07:32;;;;;;;3.7;1.1;;;;;;;;;;;;;
2019/09/27 10:09:58;;;;;;;1.3;0.7;;;;;;;;;;;;;
2019/09/27 10:12:27;;;;;;;2.9;1.2;;;;;;;;;;;;;
2019/09/27 10:14:51;;;;;;;3.1;1;;;;;;;;;;;;;
2019/09/27 10:17:22;;;;;;;2.6;1.1;;;;;;;;;;;;;
2019/09/27 10:19:48;;;;;;;1.4;0.8;;;;;;;;;;;;;
2019/09/27 10:22:16;;;;;;;2.5;0.9;;;;;;;;;;;;;
2019/09/27 10:24:41;;;;;;;2.2;0.9;;;;;;;;;;;;;
2019/09/27 10:27:05;;;;;;;2.6;0.8;;;;;;;;;;;;;
2019/09/27 10:29:29;;;;;;;2.9;0.9;;;;;;;;;;;;;
2019/09/27 10:32:02;;;;;;;2.1;1;;;;;;;;;;;;;
2019/09/27 10:34:22;;;;;;;2;0.9;;;;;;;;;;;;;
2019/09/27 10:36:45;;;;;;;2.5;0.8;;;;;;;;;;;;;
2019/09/27 10:39:11;;;;;;;2.3;0.8;;;;;;;;;;;;;
2019/09/27 10:41:43;;;;;;;2.2;1;;;;;;;;;;;;;
2019/09/27 10:44:01;;;;;;;1.7;0.9;;;;;;;;;;;;;
2019/09/27 10:46:29;;;;;;;1.4;0.9;;;;;;;;;;;;;
2019/09/27 10:48:51;;;;;;;2.3;0.6;;;;;;;;;;;;;
2019/09/27 10:51:20;;;;;;;1.9;0.8;;;;;;;;;;;;;
2019/09/27 10:53:44;;;;;;;1;0.7;;;;;;;;;;;;;
2019/09/27 10:56:17;;;;;;;1.9;0.7;;;;;;;;;;;;;
2019/09/27 10:58:43;;;;;;;0.8;0.6;;;;;;;;;;;;;
2019/09/27 11:01:13;;;;;;;0.7;0.6;;;;;;;;;;;;;
2019/09/27 11:06:18;;;;;;;1.1;0.7;;;;;;;;;;;;;
2019/09/27 11:08:48;;;;;;;0.9;0.7;;;;;;;;;;;;;
2019/09/27 11:11:24;;;;;;;1.5;0.7;;;;;;;;;;;;;
2019/09/27 11:13:48;;;;;;;0.7;0.5;;;;;;;;;;;;;
2019/09/27 11:16:14;;;;;;;1.1;0.7;;;;;;;;;;;;;
2019/09/27 11:18:40;;;;;;;1.8;0.8;;;;;;;;;;;;;
2019/09/27 11:21:04;;;;;;;0.9;0.6;;;;;;;;;;;;;
2019/09/27 11:23:29;;;;;;;1.7;0.6;;;;;;;;;;;;;
2019/09/27 11:25:56;;;;;;;2.2;0.6;;;;;;;;;;;;;
2019/09/27 11:28:21;;;;;;;0.8;0.7;;;;;;;;;;;;;
2019/09/27 11:30:46;;;;;;;0.8;0.6;;;;;;;;;;;;;
2019/09/27 11:33:15;;;;;;;3;0.6;;;;;;;;;;;;;
2019/09/27 11:35:40;;;;;;;1;0.5;;;;;;;;;;;;;
2019/09/27 11:38:07;;;;;;;1.2;0.7;;;;;;;;;;;;;
2019/09/27 11:40:27;;;;;;;0.9;0.7;;;;;;;;;;;;;
2019/09/27 11:42:56;;;;;;;1.1;0.5;;;;;;;;;;;;;
2019/09/27 11:45:20;;;;;;;2.4;0.6;;;;;;;;;;;;;
2019/09/27 11:47:44;;;;;;;4.4;0.8;;;;;;;;;;;;;
2019/09/27 11:50:10;;;;;;;3.5;0.9;;;;;;;;;;;;;
2019/09/27 11:52:36;;;;;;;4.5;0.9;;;;;;;;;;;;;
2019/09/27 11:55:00;;;;;;;2;0.5;;;;;;;;;;;;;
2019/09/27 11:57:25;;;;;;;0.6;0.6;;;;;;;;;;;;;
2019/09/27 12:00:18;;;;;;;2.6;0.5;;;;;;;;;;;;;
2019/09/27 12:02:41;;;;;;;2.2;0.7;;;;;;;;;;;;;
2019/09/27 12:05:06;;;;;;;1.5;0.6;;;;;;;;;;;;;
2019/09/27 12:07:35;;;;;;;4.5;0.7;;;;;;;;;;;;;
2019/09/27 12:09:57;;;;;;;0.7;0.5;;;;;;;;;;;;;
2019/09/27 12:12:21;;;;;;;2.5;0.7;;;;;;;;;;;;;
2019/09/27 12:14:48;;;;;;;4.8;0.6;;;;;;;;;;;;;
2019/09/27 12:17:17;;;;;;;4.4;0.5;;;;;;;;;;;;;
2019/09/27 12:19:40;;;;;;;2.7;0.5;;;;;;;;;;;;;
2019/09/27 12:22:16;;;;;;;3.4;0.5;;;;;;;;;;;;;
2019/09/27 12:24:35;;;;;;;2.1;0.6;;;;;;;;;;;;;
2019/09/27 12:27:00;;;;;;;0.6;0.5;;;;;;;;;;;;;
2019/09/27 12:29:31;;;;;;;1.4;0.7;;;;;;;;;;;;;
2019/09/27 12:31:53;;;;;;;3.1;0.7;;;;;;;;;;;;;
2019/09/27 12:34:16;;;;;;;1.5;0.5;;;;;;;;;;;;;
2019/09/27 12:36:46;;;;;;;1.4;0.5;;;;;;;;;;;;;
2019/09/27 12:39:10;;;;;;;2;0.6;;;;;;;;;;;;;
2019/09/27 12:41:35;;;;;;;2;0.6;;;;;;;;;;;;;
2019/09/27 12:43:59;;;;;;;3.9;0.7;;;;;;;;;;;;;
2019/09/27 12:46:30;;;;;;;2.2;0.6;;;;;;;;;;;;;
2019/09/27 12:48:53;;;;;;;1.6;0.7;;;;;;;;;;;;;
2019/09/27 12:51:18;;;;;;;2;0.6;;;;;;;;;;;;;
2019/09/27 12:53:45;;;;;;;1.8;0.6;;;;;;;;;;;;;
2019/09/27 12:56:12;;;;;;;1;0.6;;;;;;;;;;;;;
2019/09/27 12:58:36;;;;;;;1.9;0.6;;;;;;;;;;;;;
2019/09/27 13:01:04;;;;;;;0.9;0.5;;;;;;;;;;;;;
2019/09/27 13:03:31;;;;;;;0.7;0.5;;;;;;;;;;;;;
2019/09/27 13:06:01;;;;;;;0.5;0.5;;;;;;;;;;;;;
2019/09/27 13:08:22;;;;;;;0.9;0.6;;;;;;;;;;;;;
2019/09/27 13:10:47;;;;;;;2.3;0.7;;;;;;;;;;;;;
2019/09/27 13:13:12;;;;;;;2.6;0.8;;;;;;;;;;;;;
2019/09/27 13:15:42;;;;;;;2.1;0.7;;;;;;;;;;;;;
2019/09/27 13:18:16;;;;;;;2;0.6;;;;;;;;;;;;;
2019/09/27 13:20:41;;;;;;;2.1;0.7;;;;;;;;;;;;;
2019/09/27 13:23:11;;;;;;;2.2;0.6;;;;;;;;;;;;;
2019/09/27 13:25:35;;;;;;;0.9;0.6;;;;;;;;;;;;;
2019/09/27 13:28:17;;;;;;;2.3;0.6;;;;;;;;;;;;;
2019/09/27 13:30:36;;;;;;;2.2;0.7;;;;;;;;;;;;;
2019/09/27 13:32:58;;;;;;;0.9;0.7;;;;;;;;;;;;;
2019/09/27 13:35:24;;;;;;;1.8;0.8;;;;;;;;;;;;;
2019/09/27 13:38:20;;;;;;;1.7;0.8;;;;;;;;;;;;;
2019/09/27 13:40:44;;;;;;;1.1;0.8;;;;;;;;;;;;;
2019/09/27 13:43:23;;;;;;;1.8;0.7;;;;;;;;;;;;;
2019/09/27 13:45:46;;;;;;;2.3;0.7;;;;;;;;;;;;;
2019/09/27 13:48:19;;;;;;;2.2;0.7;;;;;;;;;;;;;
2019/09/27 13:51:16;;;;;;;2.7;0.7;;;;;;;;;;;;;
2019/09/27 13:53:35;;;;;;;1.6;0.9;;;;;;;;;;;;;
2019/09/27 13:56:04;;;;;;;1.8;0.8;;;;;;;;;;;;;
2019/09/27 13:58:30;;;;;;;1.8;1;;;;;;;;;;;;;
2019/09/27 14:00:54;;;;;;;1.5;0.9;;;;;;;;;;;;;
2019/09/27 14:03:26;;;;;;;2;0.9;;;;;;;;;;;;;
2019/09/27 14:05:49;;;;;;;2.7;0.8;;;;;;;;;;;;;
2019/09/27 14:08:19;;;;;;;3.1;1.1;;;;;;;;;;;;;
2019/09/27 14:10:46;;;;;;;3.3;0.8;;;;;;;;;;;;;
2019/09/27 14:13:09;;;;;;;2.8;0.9;;;;;;;;;;;;;
2019/09/27 14:15:37;;;;;;;5.7;1;;;;;;;;;;;;;
2019/09/27 14:18:16;;;;;;;2;0.9;;;;;;;;;;;;;
2019/09/27 14:20:38;;;;;;;1.5;0.8;;;;;;;;;;;;;
2019/09/27 14:23:09;;;;;;;3.5;1.1;;;;;;;;;;;;;
2019/09/27 14:25:31;;;;;;;2.2;1.3;;;;;;;;;;;;;
2019/09/27 14:28:14;;;;;;;1.6;0.9;;;;;;;;;;;;;
2019/09/27 14:30:38;;;;;;;2.1;0.9;;;;;;;;;;;;;
2019/09/27 14:33:03;;;;;;;1.3;0.8;;;;;;;;;;;;;
2019/09/27 14:35:28;;;;;;;1.6;0.9;;;;;;;;;;;;;
2019/09/27 14:37:55;;;;;;;1.7;0.9;;;;;;;;;;;;;
2019/09/27 14:40:21;;;;;;;1.8;0.8;;;;;;;;;;;;;
2019/09/27 14:42:43;;;;;;;3;1;;;;;;;;;;;;;
2019/09/27 14:45:07;;;;;;;3.3;1;;;;;;;;;;;;;
2019/09/27 14:47:35;;;;;;;2.8;1;;;;;;;;;;;;;
2019/09/27 14:49:59;;;;;;;1.4;0.9;;;;;;;;;;;;;
2019/09/27 14:52:24;;;;;;;2.2;0.9;;;;;;;;;;;;;
2019/09/27 14:54:53;;;;;;;1.7;1;;;;;;;;;;;;;
2019/09/27 14:57:17;;;;;;;1.7;1.2;;;;;;;;;;;;;
2019/09/27 14:59:40;;;;;;;3.2;1;;;;;;;;;;;;;
2019/09/27 15:02:06;;;;;;;2.5;1.1;;;;;;;;;;;;;
2019/09/27 15:04:34;;;;;;;1.5;1.1;;;;;;;;;;;;;
2019/09/27 15:06:56;;;;;;;2.5;1.6;;;;;;;;;;;;;
2019/09/27 15:09:23;;;;;;;2.1;1.4;;;;;;;;;;;;;
2019/09/27 15:11:48;;;;;;;3.6;1.2;;;;;;;;;;;;;
2019/09/27 15:14:28;;;;;;;2.6;1.2;;;;;;;;;;;;;
2019/09/27 15:16:39;;;;;;;2.3;1.2;;;;;;;;;;;;;
2019/09/27 15:19:06;;;;;;;2.1;1.2;;;;;;;;;;;;;
2019/09/27 15:21:32;;;;;;;1.9;1.3;;;;;;;;;;;;;
2019/09/27 15:23:56;;;;;;;2.9;1.5;;;;;;;;;;;;;
2019/09/27 15:26:26;;;;;;;2.1;1.2;;;;;;;;;;;;;
2019/09/27 15:28:49;;;;;;;3.1;1.3;;;;;;;;;;;;;
2019/09/27 15:31:15;;;;;;;2.4;1.4;;;;;;;;;;;;;
2019/09/27 15:34:17;;;;;;;2.5;1.3;;;;;;;;;;;;;
2019/09/27 15:36:32;;;;;;;3.1;1.4;;;;;;;;;;;;;
2019/09/27 15:39:04;;;;;;;4.8;1.5;;;;;;;;;;;;;
2019/09/27 15:41:28;;;;;;;3.3;1.5;;;;;;;;;;;;;
2019/09/27 15:43:49;;;;;;;2.4;1.4;;;;;;;;;;;;;
2019/09/27 15:46:22;;;;;;;3.2;1.5;;;;;;;;;;;;;
2019/09/27 15:49:17;;;;;;;2.7;1.5;;;;;;;;;;;;;
2019/09/27 15:51:25;;;;;;;2.7;1.2;;;;;;;;;;;;;
2019/09/27 15:53:49;;;;;;;4.2;1.7;;;;;;;;;;;;;
2019/09/27 15:56:16;;;;;;;39;5.4;;;;;;;;;;;;;
2019/09/27 15:58:43;;;;;;;24.6;3.6;;;;;;;;;;;;;
2019/09/27 16:01:06;;;;;;;7.3;1.8;;;;;;;;;;;;;
2019/09/27 16:03:32;;;;;;;2.2;1.4;;;;;;;;;;;;;
2019/09/27 16:05:57;;;;;;;3.2;1.7;;;;;;;;;;;;;
2019/09/27 16:08:21;;;;;;;9.3;2.3;;;;;;;;;;;;;
2019/09/27 16:10:49;;;;;;;3.9;1.5;;;;;;;;;;;;;
2019/09/27 16:13:14;;;;;;;5.1;1.7;;;;;;;;;;;;;
2019/09/27 16:15:43;;;;;;;3.3;1.6;;;;;;;;;;;;;
2019/09/27 16:18:07;;;;;;;4.4;1.5;;;;;;;;;;;;;
2019/09/27 16:20:32;;;;;;;3.6;1.5;;;;;;;;;;;;;
2019/09/27 16:23:00;;;;;;;2.6;1.3;;;;;;;;;;;;;
2019/09/27 16:25:28;;;;;;;3.2;1.7;;;;;;;;;;;;;
2019/09/27 16:27:49;;;;;;;6;2;;;;;;;;;;;;;
2019/09/27 16:30:13;;;;;;;6.8;1.9;;;;;;;;;;;;;
2019/09/27 16:32:41;;;;;;;4.3;1.7;;;;;;;;;;;;;
2019/09/27 16:35:08;;;;;;;3.2;1.7;;;;;;;;;;;;;
2019/09/27 16:37:28;;;;;;;7;1.7;;;;;;;;;;;;;
2019/09/27 16:39:54;;;;;;;5.5;1.7;;;;;;;;;;;;;
2019/09/27 16:42:24;;;;;;;6.6;2;;;;;;;;;;;;;
2019/09/27 16:44:46;;;;;;;6.8;2;;;;;;;;;;;;;
2019/09/27 16:47:11;;;;;;;3.7;1.7;;;;;;;;;;;;;
2019/09/27 16:49:41;;;;;;;3.2;1.6;;;;;;;;;;;;;
2019/09/27 16:52:07;;;;;;;2.9;1.8;;;;;;;;;;;;;
2019/09/27 16:54:31;;;;;;;5.3;2;;;;;;;;;;;;;
2019/09/27 16:59:26;;;;;;;4.7;1.7;;;;;;;;;;;;;
2019/09/27 17:01:57;;;;;;;4.5;1.4;;;;;;;;;;;;;
2019/09/27 17:04:20;;;;;;;2.1;1.2;;;;;;;;;;;;;
2019/09/27 17:06:42;;;;;;;4.8;1.3;;;;;;;;;;;;;
2019/09/27 17:09:09;;;;;;;5.5;1.8;;;;;;;;;;;;;
2019/09/27 17:11:37;;;;;;;8.1;2.4;;;;;;;;;;;;;
2019/09/27 17:14:21;;;;;;;6.7;1.9;;;;;;;;;;;;;
2019/09/27 17:16:45;;;;;;;4;2.1;;;;;;;;;;;;;
2019/09/27 17:19:13;;;;;;;5;2.1;;;;;;;;;;;;;
2019/09/27 17:21:37;;;;;;;4.3;2;;;;;;;;;;;;;
2019/09/27 17:24:04;;;;;;;4.9;2.2;;;;;;;;;;;;;
2019/09/27 17:26:30;;;;;;;3.9;2;;;;;;;;;;;;;
2019/09/27 17:28:54;;;;;;;5.7;3;;;;;;;;;;;;;
2019/09/27 17:31:20;;;;;;;8.8;4.7;;;;;;;;;;;;;
2019/09/27 17:33:49;;;;;;;8.5;6.2;;;;;;;;;;;;;
2019/09/27 17:36:13;;;;;;;8.9;5.9;;;;;;;;;;;;;
2019/09/27 17:38:37;;;;;;;15.4;11.2;;;;;;;;;;;;;
2019/09/27 17:41:01;;;;;;;11.6;8.1;;;;;;;;;;;;;
2019/09/27 17:43:25;;;;;;;10.3;6.1;;;;;;;;;;;;;
2019/09/27 17:45:53;;;;;;;18.7;9.9;;;;;;;;;;;;;
2019/09/27 17:48:18;;;;;;;14.1;8.9;;;;;;;;;;;;;
2019/09/27 17:50:42;;;;;;;8.7;5.1;;;;;;;;;;;;;
2019/09/27 17:53:10;;;;;;;8.6;5.1;;;;;;;;;;;;;
2019/09/27 17:58:03;;;;;;;6.8;4.4;;;;;;;;;;;;;
2019/09/27 18:00:29;;;;;;;6.9;4.8;;;;;;;;;;;;;
2019/09/27 18:02:53;;;;;;;8;4.8;;;;;;;;;;;;;
2019/09/27 18:05:19;;;;;;;10.8;4.7;;;;;;;;;;;;;
2019/09/27 18:07:43;;;;;;;7.5;4.3;;;;;;;;;;;;;
2019/09/27 18:10:11;;;;;;;6.2;3.8;;;;;;;;;;;;;
2019/09/27 18:12:33;;;;;;;9.7;3.3;;;;;;;;;;;;;
2019/09/27 18:15:00;;;;;;;7.3;3.4;;;;;;;;;;;;;
2019/09/27 18:17:29;;;;;;;10.3;6;;;;;;;;;;;;;
2019/09/27 18:19:50;;;;;;;10.9;6.2;;;;;;;;;;;;;
2019/09/27 18:22:18;;;;;;;7.1;5;;;;;;;;;;;;;
2019/09/27 18:24:46;;;;;;;6.9;5;;;;;;;;;;;;;
2019/09/27 18:27:10;;;;;;;8.8;4.6;;;;;;;;;;;;;
2019/09/27 18:30:20;;;;;;;7.1;4.2;;;;;;;;;;;;;
2019/09/27 18:32:40;;;;;;;4.4;2.7;;;;;;;;;;;;;
2019/09/27 18:35:08;;;;;;;4.3;2.5;;;;;;;;;;;;;
2019/09/27 18:37:34;;;;;;;3.1;2.5;;;;;;;;;;;;;
2019/09/27 18:39:57;;;;;;;2.3;2;;;;;;;;;;;;;
2019/09/27 18:42:21;;;;;;;4.6;2;;;;;;;;;;;;;
2019/09/27 18:44:47;;;;;;;5.5;2.6;;;;;;;;;;;;;
2019/09/27 18:47:12;;;;;;;7.4;2.8;;;;;;;;;;;;;
2019/09/27 18:49:37;;;;;;;10.8;7.5;;;;;;;;;;;;;
2019/09/27 18:52:08;;;;;;;10.1;7.4;;;;;;;;;;;;;
2019/09/27 18:54:36;;;;;;;8.2;6.5;;;;;;;;;;;;;
2019/09/27 18:56:55;;;;;;;10;6.8;;;;;;;;;;;;;
2019/09/27 18:59:20;;;;;;;10.6;6.5;;;;;;;;;;;;;
2019/09/27 19:01:43;;;;;;;12.3;7.5;;;;;;;;;;;;;
2019/09/27 19:04:10;;;;;;;10.4;6.5;;;;;;;;;;;;;
2019/09/27 19:06:36;;;;;;;7;3.6;;;;;;;;;;;;;
2019/09/27 19:09:10;;;;;;;5.9;3.9;;;;;;;;;;;;;
2019/09/27 19:11:29;;;;;;;6.2;4.3;;;;;;;;;;;;;
2019/09/27 19:13:55;;;;;;;6.7;4.2;;;;;;;;;;;;;
2019/09/27 19:16:16;;;;;;;6.4;4.1;;;;;;;;;;;;;
2019/09/27 19:18:41;;;;;;;5.7;3.8;;;;;;;;;;;;;
2019/09/27 19:21:06;;;;;;;8.7;5.1;;;;;;;;;;;;;
2019/09/27 19:23:32;;;;;;;10.1;5.5;;;;;;;;;;;;;
2019/09/27 19:26:00;;;;;;;8.6;5.4;;;;;;;;;;;;;
2019/09/27 19:28:32;;;;;;;10.7;5.4;;;;;;;;;;;;;
2019/09/27 19:33:29;;;;;;;6.2;5;;;;;;;;;;;;;
2019/09/27 19:35:54;;;;;;;7.1;4.8;;;;;;;;;;;;;
2019/09/27 19:38:24;;;;;;;7.7;4.5;;;;;;;;;;;;;
2019/09/27 19:40:56;;;;;;;9.1;5.1;;;;;;;;;;;;;
2019/09/27 19:43:18;;;;;;;7.5;4.7;;;;;;;;;;;;;
2019/09/27 19:45:38;;;;;;;8.7;4.8;;;;;;;;;;;;;
2019/09/27 19:48:04;;;;;;;8.3;4.8;;;;;;;;;;;;;
2019/09/27 19:50:31;;;;;;;9.6;4.8;;;;;;;;;;;;;
2019/09/27 19:52:55;;;;;;;8.4;4.7;;;;;;;;;;;;;
2019/09/27 19:55:21;;;;;;;7;4.3;;;;;;;;;;;;;
2019/09/27 19:57:51;;;;;;;10.4;4.8;;;;;;;;;;;;;